Time;durP1;ratioP1;P1;durP2;ratioP2;P2;SDS_P1;SDS_P2;PMS_P1;PMS_P2;Temp;Humidity;BMP_temperature;BMP_pressure;BME280_temperature;BME280_humidity;BME280_pressure;Samples;Min_cycle;Max_cycle;Signal;HPM_P1;HPM_P2
2024/02/08 00:01:41;;;;;;;13.53;8.70;;;2.80;99.90;;;;;;5066386;28;20511;-83
2024/02/08 00:04:08;;;;;;;20.07;9.13;;;2.80;99.90;;;;;;5064742;28;20527;-83
2024/02/08 00:06:35;;;;;;;18.67;10.33;;;2.90;99.90;;;;;;5065215;28;21172;-84
2024/02/08 00:09:03;;;;;;;16.57;9.80;;;2.90;99.90;;;;;;5066343;28;20480;-83
2024/02/08 00:11:31;;;;;;;18.73;9.57;;;2.90;99.90;;;;;;5066790;28;20491;-82
2024/02/08 00:13:58;;;;;;;14.00;8.63;;;2.90;99.90;;;;;;5068558;28;20912;-83
2024/02/08 00:16:27;;;;;;;16.73;8.60;;;3.00;99.90;;;;;;5068117;28;20489;-84
2024/02/08 00:18:54;;;;;;;15.30;9.30;;;3.00;99.90;;;;;;5066628;28;20513;-85
2024/02/08 00:21:21;;;;;;;16.80;8.67;;;3.10;99.90;;;;;;5066914;28;20458;-84
2024/02/08 00:23:48;;;;;;;16.03;9.77;;;3.20;99.90;;;;;;5066621;28;20579;-85
2024/02/08 00:26:17;;;;;;;20.70;10.60;;;3.20;99.90;;;;;;5066730;28;20456;-82
2024/02/08 00:28:45;;;;;;;22.13;10.93;;;3.20;99.90;;;;;;5067219;28;20469;-84
2024/02/08 00:31:12;;;;;;;14.80;9.47;;;3.30;99.90;;;;;;5067049;28;20513;-83
2024/02/08 00:33:39;;;;;;;16.90;10.30;;;3.30;99.90;;;;;;5067301;28;20477;-84
2024/02/08 00:36:09;;;;;;;17.53;9.17;;;3.30;99.90;;;;;;5066902;28;20460;-83
2024/02/08 00:38:37;;;;;;;21.07;9.97;;;3.30;99.90;;;;;;5067292;28;20442;-84
2024/02/08 00:41:04;;;;;;;21.13;9.20;;;3.30;99.90;;;;;;5067293;28;20500;-83
2024/02/08 00:43:31;;;;;;;20.90;9.30;;;3.30;99.90;;;;;;5066391;28;20485;-83
2024/02/08 00:46:02;;;;;;;17.40;9.50;;;3.40;99.90;;;;;;5066454;28;20463;-84
2024/02/08 00:48:29;;;;;;;24.53;11.10;;;3.40;99.90;;;;;;5066838;28;20464;-85
2024/02/08 00:50:56;;;;;;;17.30;10.13;;;3.40;99.90;;;;;;5066089;28;20497;-83
2024/02/08 00:53:23;;;;;;;20.23;10.43;;;3.30;99.90;;;;;;5066217;28;20540;-85
2024/02/08 00:55:49;;;;;;;19.90;10.97;;;3.30;99.90;;;;;;5066205;28;20453;-82
2024/02/08 00:58:16;;;;;;;20.37;9.57;;;3.40;99.90;;;;;;5066474;28;20519;-85
2024/02/08 01:00:43;;;;;;;17.00;9.40;;;3.40;99.90;;;;;;5067263;28;21026;-83
2024/02/08 01:03:13;;;;;;;19.97;11.87;;;3.50;99.90;;;;;;5066053;28;20487;-83
2024/02/08 01:05:40;;;;;;;16.20;9.90;;;3.50;99.90;;;;;;5066830;28;21002;-82
2024/02/08 01:08:08;;;;;;;19.83;11.43;;;3.50;99.90;;;;;;5067544;28;20452;-82
2024/02/08 01:10:35;;;;;;;21.03;10.77;;;3.40;99.90;;;;;;5066687;28;20493;-83
2024/02/08 01:13:01;;;;;;;18.00;9.73;;;3.40;99.90;;;;;;5067002;28;20485;-82
2024/02/08 01:15:28;;;;;;;21.83;11.23;;;3.50;99.90;;;;;;5066030;28;20451;-83
2024/02/08 01:17:55;;;;;;;22.00;11.03;;;3.40;99.90;;;;;;5068207;28;20538;-84
2024/02/08 01:20:27;;;;;;;26.77;10.63;;;3.40;99.90;;;;;;5072832;28;20512;-84
2024/02/08 01:22:54;;;;;;;24.27;11.47;;;3.40;99.90;;;;;;5072078;28;20456;-85
2024/02/08 01:25:21;;;;;;;23.23;11.30;;;3.40;99.90;;;;;;5071421;28;20524;-83
2024/02/08 01:27:48;;;;;;;16.63;9.97;;;3.50;99.90;;;;;;5071941;28;20518;-84
2024/02/08 01:30:14;;;;;;;19.10;10.77;;;3.50;99.90;;;;;;5071866;28;20498;-83
2024/02/08 01:32:41;;;;;;;18.27;9.23;;;3.60;99.90;;;;;;5071872;28;20568;-84
2024/02/08 01:35:10;;;;;;;20.27;10.50;;;3.60;99.90;;;;;;5071125;28;20461;-85
2024/02/08 01:37:39;;;;;;;27.93;11.60;;;3.60;99.90;;;;;;5072260;28;20535;-84
2024/02/08 01:40:12;;;;;;;16.93;10.23;;;3.60;99.90;;;;;;5071308;28;20480;-84
2024/02/08 01:42:39;;;;;;;19.73;10.50;;;3.60;99.90;;;;;;5070646;28;20460;-83
2024/02/08 01:45:29;;;;;;;23.07;11.27;;;3.60;99.90;;;;;;5069923;28;20588;-84
2024/02/08 01:47:57;;;;;;;16.90;10.57;;;3.70;99.90;;;;;;5052806;28;20518;-84
2024/02/08 01:50:24;;;;;;;15.53;10.37;;;3.70;99.90;;;;;;5070397;28;20514;-85
2024/02/08 01:52:54;;;;;;;20.57;11.50;;;3.70;99.90;;;;;;5070219;28;20547;-84
2024/02/08 01:55:21;;;;;;;20.23;10.97;;;3.70;99.90;;;;;;5069963;28;20521;-85
2024/02/08 01:57:49;;;;;;;19.93;12.43;;;3.70;99.90;;;;;;5070238;28;20493;-85
2024/02/08 02:00:16;;;;;;;18.50;10.33;;;3.70;99.90;;;;;;5070262;28;20470;-83
2024/02/08 02:02:52;;;;;;;18.47;10.70;;;3.70;99.90;;;;;;5071142;28;20449;-84
2024/02/08 02:05:22;;;;;;;20.77;11.83;;;3.60;99.90;;;;;;5069957;28;20484;-84
2024/02/08 02:07:49;;;;;;;18.90;12.10;;;3.50;99.90;;;;;;5071044;28;20844;-84
2024/02/08 02:10:18;;;;;;;17.97;11.60;;;3.60;99.90;;;;;;5070089;28;20500;-83
2024/02/08 02:12:48;;;;;;;21.83;11.57;;;3.50;99.90;;;;;;5069965;28;20462;-83
2024/02/08 02:15:16;;;;;;;19.50;11.40;;;3.60;99.90;;;;;;5069561;28;20455;-82
2024/02/08 02:17:47;;;;;;;16.00;9.23;;;3.50;99.90;;;;;;5070498;28;20469;-85
2024/02/08 02:20:18;;;;;;;17.60;9.90;;;3.50;99.90;;;;;;5070674;28;20475;-83
2024/02/08 02:22:47;;;;;;;16.47;9.73;;;3.60;99.90;;;;;;5071026;28;20458;-84
2024/02/08 02:25:14;;;;;;;23.67;11.20;;;3.50;99.90;;;;;;5070211;28;20518;-83
2024/02/08 02:27:42;;;;;;;17.87;10.30;;;3.50;99.90;;;;;;5071332;28;20493;-85
2024/02/08 02:30:15;;;;;;;22.57;13.33;;;3.50;99.90;;;;;;5069562;28;20541;-83
2024/02/08 02:32:46;;;;;;;18.20;11.50;;;3.50;99.90;;;;;;5071402;28;20485;-84
2024/02/08 02:35:16;;;;;;;18.53;10.47;;;3.60;99.90;;;;;;5071067;28;20514;-83
2024/02/08 02:37:44;;;;;;;17.77;10.67;;;3.60;99.90;;;;;;5070801;28;20513;-84
2024/02/08 02:40:22;;;;;;;22.37;11.17;;;3.60;99.90;;;;;;5071337;28;20490;-84
2024/02/08 02:42:50;;;;;;;16.97;10.90;;;3.60;99.90;;;;;;5069412;28;20455;-83
2024/02/08 02:45:21;;;;;;;15.60;11.13;;;3.70;99.90;;;;;;5069958;28;20942;-83
2024/02/08 02:47:49;;;;;;;16.50;10.97;;;3.60;99.90;;;;;;5065509;28;20472;-86
2024/02/08 02:50:17;;;;;;;23.90;11.23;;;3.70;99.90;;;;;;5066010;28;20502;-83
2024/02/08 02:52:44;;;;;;;17.40;11.60;;;3.70;99.90;;;;;;5065827;28;20466;-83
2024/02/08 02:55:13;;;;;;;19.50;11.57;;;3.70;99.90;;;;;;5066160;28;20471;-83
2024/02/08 02:57:41;;;;;;;20.33;11.10;;;3.70;99.90;;;;;;5066658;28;20475;-83
2024/02/08 03:00:20;;;;;;;21.23;10.80;;;3.70;99.90;;;;;;5065932;28;20490;-84
2024/02/08 03:02:49;;;;;;;28.27;12.33;;;3.60;99.90;;;;;;5065576;28;20526;-84
2024/02/08 03:05:17;;;;;;;18.73;12.33;;;3.60;99.90;;;;;;5065100;28;20500;-83
2024/02/08 03:07:45;;;;;;;20.90;11.37;;;3.60;99.90;;;;;;5065223;28;20463;-84
2024/02/08 03:10:14;;;;;;;16.23;11.10;;;3.60;99.90;;;;;;5065696;28;20481;-84
2024/02/08 03:12:41;;;;;;;23.43;11.47;;;3.60;99.90;;;;;;5065786;28;20535;-83
2024/02/08 03:15:09;;;;;;;23.20;11.83;;;3.60;99.90;;;;;;5065511;28;20453;-83
2024/02/08 03:17:38;;;;;;;19.47;11.80;;;3.50;99.90;;;;;;5064953;28;20437;-83
2024/02/08 03:20:11;;;;;;;16.00;10.60;;;3.50;99.90;;;;;;5065145;28;20532;-84
2024/02/08 03:22:38;;;;;;;22.50;10.37;;;3.50;99.90;;;;;;5065014;28;20543;-83
2024/02/08 03:25:05;;;;;;;22.37;12.80;;;3.40;99.90;;;;;;5066230;28;20514;-84
2024/02/08 03:27:36;;;;;;;21.57;11.50;;;3.30;99.90;;;;;;5064685;28;20558;-83
2024/02/08 03:30:04;;;;;;;15.60;10.43;;;3.30;99.90;;;;;;5065580;28;20528;-83
2024/02/08 03:32:35;;;;;;;19.60;10.90;;;3.30;99.90;;;;;;5065350;28;20465;-84
2024/02/08 03:35:01;;;;;;;21.63;10.67;;;3.30;99.90;;;;;;5065165;28;20437;-84
2024/02/08 03:37:28;;;;;;;17.03;10.80;;;3.30;99.90;;;;;;5064803;28;20524;-84
2024/02/08 03:39:55;;;;;;;20.13;12.33;;;3.30;99.90;;;;;;5063943;28;20471;-84
2024/02/08 03:42:22;;;;;;;19.90;10.27;;;3.40;99.90;;;;;;5064561;28;20468;-85
2024/02/08 03:44:50;;;;;;;20.47;12.30;;;3.40;99.90;;;;;;5063874;28;20861;-84
2024/02/08 03:47:18;;;;;;;19.43;9.63;;;3.50;99.90;;;;;;5064475;28;20467;-83
2024/02/08 03:49:51;;;;;;;21.10;11.63;;;3.50;99.90;;;;;;5064982;28;20474;-84
2024/02/08 03:52:18;;;;;;;22.50;10.73;;;3.60;99.90;;;;;;5064981;28;20491;-83
2024/02/08 03:54:45;;;;;;;16.20;10.80;;;3.60;99.90;;;;;;5065247;28;20458;-84
2024/02/08 03:57:13;;;;;;;21.00;12.30;;;3.70;99.90;;;;;;5065216;28;20476;-83
2024/02/08 03:59:40;;;;;;;25.80;11.60;;;3.70;99.90;;;;;;5065429;28;20476;-84
2024/02/08 04:02:10;;;;;;;19.40;11.40;;;3.80;99.90;;;;;;5066262;28;20458;-84
2024/02/08 04:04:49;;;;;;;25.63;12.20;;;3.80;99.90;;;;;;5067018;28;20455;-83
2024/02/08 04:07:20;;;;;;;19.27;10.07;;;3.70;99.90;;;;;;5067144;28;20526;-83
2024/02/08 04:09:55;;;;;;;17.70;10.80;;;3.80;99.90;;;;;;5066410;28;20524;-84
2024/02/08 04:53:37;;;;;;;29.27;14.87;;;4.00;99.90;;;;;;5064117;28;20442;-84
2024/02/08 04:56:08;;;;;;;22.43;14.93;;;4.10;99.90;;;;;;5065591;28;20443;-83
2024/02/08 04:58:36;;;;;;;24.60;14.20;;;4.10;99.90;;;;;;5065721;28;20460;-83
2024/02/08 05:01:03;;;;;;;23.63;14.73;;;4.10;99.90;;;;;;5066202;28;20475;-83
2024/02/08 05:03:30;;;;;;;31.60;16.17;;;4.00;99.90;;;;;;5066117;28;20477;-83
2024/02/08 05:06:00;;;;;;;28.17;15.33;;;3.90;99.90;;;;;;5065566;28;20601;-84
2024/02/08 05:08:27;;;;;;;26.07;15.03;;;3.90;99.90;;;;;;5065548;28;20485;-83
2024/02/08 05:10:55;;;;;;;27.80;15.80;;;3.90;99.90;;;;;;5066030;28;20538;-83
2024/02/08 05:13:24;;;;;;;31.27;16.27;;;3.90;99.90;;;;;;5065310;28;20887;-83
2024/02/08 05:15:52;;;;;;;28.83;14.07;;;3.90;99.90;;;;;;5066084;28;20484;-83
2024/02/08 05:18:21;;;;;;;28.77;15.27;;;3.90;99.90;;;;;;5065160;28;20462;-86
2024/02/08 05:20:49;;;;;;;32.77;15.17;;;3.80;99.90;;;;;;5064960;28;20556;-85
2024/02/08 05:23:17;;;;;;;25.90;13.83;;;3.80;99.90;;;;;;5064638;28;20486;-84
2024/02/08 05:25:44;;;;;;;28.50;14.70;;;3.90;99.90;;;;;;5065914;28;20917;-85
2024/02/08 05:28:12;;;;;;;21.43;11.87;;;3.80;99.90;;;;;;5066806;28;20491;-85
2024/02/08 05:30:41;;;;;;;28.23;14.90;;;3.80;99.90;;;;;;5066367;28;20489;-83
2024/02/08 05:33:08;;;;;;;24.27;14.40;;;3.80;99.90;;;;;;5067455;28;20463;-83
2024/02/08 05:35:36;;;;;;;30.90;15.60;;;3.80;99.90;;;;;;5066647;28;20879;-83
2024/02/08 05:38:03;;;;;;;26.73;15.03;;;3.80;99.90;;;;;;5067282;28;20450;-84
2024/02/08 05:40:31;;;;;;;24.20;14.70;;;3.90;99.90;;;;;;5059561;28;20552;-85
2024/02/08 05:42:59;;;;;;;27.50;15.63;;;3.90;99.90;;;;;;5064286;28;20442;-84
2024/02/08 05:45:30;;;;;;;21.73;13.90;;;3.90;99.90;;;;;;5063061;28;20486;-84
2024/02/08 05:48:05;;;;;;;26.10;14.20;;;3.90;99.90;;;;;;5066971;28;20454;-85
2024/02/08 05:50:33;;;;;;;24.27;14.73;;;3.90;99.90;;;;;;5065408;28;20476;-84
2024/02/08 05:53:06;;;;;;;28.47;16.93;;;3.90;99.90;;;;;;5063929;28;20901;-84
2024/02/08 05:55:35;;;;;;;27.63;16.60;;;3.90;99.90;;;;;;5063190;28;20542;-84
2024/02/08 05:58:03;;;;;;;21.33;13.93;;;4.00;99.90;;;;;;5063804;28;20510;-83
2024/02/08 06:00:36;;;;;;;25.50;14.73;;;3.90;99.90;;;;;;5064319;28;20472;-84
2024/02/08 06:03:03;;;;;;;28.23;15.97;;;4.00;99.90;;;;;;5049397;28;20463;-84
2024/02/08 06:05:32;;;;;;;25.83;13.93;;;4.00;99.90;;;;;;5069453;28;20494;-85
2024/02/08 06:07:59;;;;;;;26.93;13.77;;;4.00;99.90;;;;;;5070221;28;20471;-84
2024/02/08 06:10:41;;;;;;;24.30;13.03;;;4.00;99.90;;;;;;5070484;28;20475;-82
2024/02/08 06:13:13;;;;;;;22.13;15.10;;;4.10;99.90;;;;;;5069829;28;20451;-84
2024/02/08 06:15:43;;;;;;;27.83;15.47;;;4.00;99.90;;;;;;5067917;28;20460;-83
2024/02/08 06:18:13;;;;;;;26.33;14.13;;;4.00;99.90;;;;;;5067727;28;20509;-86
2024/02/08 06:20:43;;;;;;;25.67;13.83;;;4.00;99.90;;;;;;5051021;28;20478;-84
2024/02/08 06:23:23;;;;;;;26.83;14.00;;;4.00;99.90;;;;;;5067898;28;20455;-85
2024/02/08 06:26:27;;;;;;;23.20;14.03;;;4.00;99.90;;;;;;5067632;28;21011;-85
2024/02/08 06:29:05;;;;;;;22.77;13.80;;;4.00;99.90;;;;;;5067733;28;20543;-84
2024/02/08 06:31:40;;;;;;;24.50;14.13;;;4.10;99.90;;;;;;5070534;28;20489;-85
2024/02/08 06:36:58;;;;;;;26.20;15.57;;;4.10;99.90;;;;;;5064617;28;20441;-85
2024/02/08 06:39:28;;;;;;;24.63;13.13;;;4.00;99.90;;;;;;5067129;28;20545;-84
2024/02/08 06:42:07;;;;;;;26.50;13.83;;;4.10;99.90;;;;;;5067497;28;20469;-84
2024/02/08 06:44:46;;;;;;;24.77;13.27;;;4.10;99.90;;;;;;5068311;28;20453;-85
2024/02/08 06:47:29;;;;;;;26.97;12.77;;;4.10;99.90;;;;;;5068192;28;20490;-86
2024/02/08 07:39:35;;;;;;;26.20;13.43;;;4.30;99.90;;;;;;5064916;28;20557;-83
2024/02/08 07:42:12;;;;;;;24.63;14.43;;;4.30;99.90;;;;;;5070694;28;20456;-84
2024/02/08 07:44:45;;;;;;;24.87;14.07;;;4.30;99.90;;;;;;5070401;28;20463;-82
2024/02/08 07:47:12;;;;;;;22.90;13.53;;;4.40;99.90;;;;;;5069842;28;20503;-83
2024/02/08 07:49:44;;;;;;;22.50;14.50;;;4.40;99.90;;;;;;5070057;28;20468;-82
2024/02/08 07:52:19;;;;;;;26.50;13.60;;;4.50;99.90;;;;;;5071723;28;20456;-85
2024/02/08 07:54:47;;;;;;;26.70;12.17;;;4.50;99.90;;;;;;5070279;28;20486;-84
2024/02/08 07:57:14;;;;;;;20.33;12.77;;;4.60;99.90;;;;;;5067975;28;20450;-77
2024/02/08 07:59:42;;;;;;;27.90;15.67;;;4.70;99.90;;;;;;5068928;28;20530;-82
2024/02/08 08:02:12;;;;;;;23.70;13.43;;;4.70;99.90;;;;;;5070239;28;20487;-83
2024/02/08 08:04:51;;;;;;;19.70;12.57;;;4.80;99.90;;;;;;5070245;28;20502;-84
2024/02/08 08:07:22;;;;;;;23.90;11.53;;;4.90;99.90;;;;;;5070635;28;20492;-83
2024/02/08 08:09:59;;;;;;;21.73;13.43;;;4.80;99.90;;;;;;5067273;28;20510;-79
2024/02/08 08:12:29;;;;;;;21.63;11.97;;;4.90;99.90;;;;;;5068125;28;20966;-80
2024/02/08 08:15:13;;;;;;;23.20;12.80;;;5.00;99.90;;;;;;5069258;28;20461;-83
2024/02/08 08:17:42;;;;;;;17.03;10.93;;;5.20;99.90;;;;;;5069795;28;20459;-82
2024/02/08 08:20:50;;;;;;;19.37;11.23;;;5.10;99.90;;;;;;5071016;28;20476;-83
2024/02/08 08:23:25;;;;;;;22.90;11.23;;;5.20;99.90;;;;;;5070376;28;20448;-84
2024/02/08 08:26:23;;;;;;;20.57;11.23;;;5.30;99.90;;;;;;5070223;28;20572;-82
2024/02/08 08:28:52;;;;;;;18.50;11.13;;;5.30;99.90;;;;;;5070133;28;20914;-80
2024/02/08 08:31:46;;;;;;;22.97;10.87;;;5.30;99.90;;;;;;5070673;28;20451;-82
2024/02/08 08:37:02;;;;;;;16.83;10.53;;;5.40;99.90;;;;;;5070219;28;20722;-82
2024/02/08 08:42:17;;;;;;;14.43;10.43;;;5.30;99.90;;;;;;5070157;28;20437;-82
2024/02/08 08:44:51;;;;;;;16.90;10.10;;;5.40;99.90;;;;;;5070507;28;20454;-81
2024/02/08 08:47:18;;;;;;;16.10;10.30;;;5.50;99.90;;;;;;5070123;28;20516;-83
2024/02/08 08:49:50;;;;;;;16.90;10.20;;;5.50;99.90;;;;;;5070522;28;20505;-82
2024/02/08 08:52:23;;;;;;;16.43;9.70;;;5.60;99.90;;;;;;5070166;28;20555;-82
2024/02/08 08:54:57;;;;;;;16.30;10.00;;;5.70;99.90;;;;;;5069811;28;20462;-82
2024/02/08 08:57:25;;;;;;;14.17;9.57;;;5.80;99.90;;;;;;5070161;28;20489;-84
2024/02/08 08:59:52;;;;;;;14.87;8.33;;;6.00;99.90;;;;;;5075929;28;20479;-83
2024/02/08 09:02:19;;;;;;;13.27;8.60;;;6.10;99.90;;;;;;5076196;28;20468;-84
2024/02/08 09:04:47;;;;;;;14.63;9.20;;;6.10;99.90;;;;;;5077044;28;20512;-84
2024/02/08 09:07:13;;;;;;;14.47;9.57;;;6.20;99.90;;;;;;5076742;28;20506;-83
2024/02/08 09:10:01;;;;;;;10.07;6.53;;;6.10;99.90;;;;;;5076313;28;20456;-82
2024/02/08 09:12:36;;;;;;;14.50;9.70;;;6.00;99.90;;;;;;5076945;28;20470;-84
2024/02/08 09:17:51;;;;;;;14.03;7.70;;;5.80;99.90;;;;;;5074089;28;20493;-84
2024/02/08 09:20:23;;;;;;;14.40;8.07;;;5.80;99.90;;;;;;5077249;28;20463;-83
2024/02/08 09:22:52;;;;;;;12.00;7.00;;;5.90;99.90;;;;;;5076688;28;20428;-85
2024/02/08 09:25:20;;;;;;;13.83;8.40;;;6.00;99.90;;;;;;5076440;28;20433;-84
2024/02/08 09:27:53;;;;;;;11.37;8.13;;;6.00;99.90;;;;;;5077295;28;20503;-84
2024/02/08 09:30:37;;;;;;;12.33;8.23;;;5.90;99.90;;;;;;5076699;28;20539;-84
2024/02/08 09:33:13;;;;;;;16.53;8.37;;;5.90;99.90;;;;;;5076059;28;20451;-83
2024/02/08 09:35:41;;;;;;;14.77;8.53;;;5.90;99.90;;;;;;5076186;28;20501;-82
2024/02/08 09:38:09;;;;;;;12.70;8.30;;;5.90;99.90;;;;;;5077446;28;20440;-85
2024/02/08 09:40:45;;;;;;;16.17;8.03;;;5.90;99.90;;;;;;5080601;28;20478;-85
2024/02/08 09:43:17;;;;;;;13.43;8.43;;;5.90;99.90;;;;;;5081017;28;20517;-84
2024/02/08 09:45:45;;;;;;;11.03;7.43;;;5.70;99.90;;;;;;5080452;28;20463;-84
2024/02/08 09:48:25;;;;;;;12.17;8.53;;;5.90;99.90;;;;;;5080972;28;20458;-85
2024/02/08 09:50:59;;;;;;;15.60;9.20;;;6.00;99.90;;;;;;5080774;28;20460;-84
2024/02/08 09:53:29;;;;;;;10.57;7.50;;;6.00;99.90;;;;;;5081141;28;20427;-85
2024/02/08 09:56:08;;;;;;;12.07;8.23;;;6.00;99.90;;;;;;5080216;28;20452;-85
2024/02/08 09:58:37;;;;;;;12.00;7.60;;;6.00;99.90;;;;;;5080486;28;20456;-83
2024/02/08 10:01:21;;;;;;;12.33;6.83;;;6.00;99.90;;;;;;5080122;28;20468;-84
2024/02/08 10:03:49;;;;;;;11.10;8.00;;;5.90;99.90;;;;;;5080709;28;20464;-84
2024/02/08 10:06:24;;;;;;;16.23;7.50;;;5.80;99.90;;;;;;5080102;28;20467;-85
2024/02/08 10:08:54;;;;;;;10.97;7.00;;;5.80;99.90;;;;;;5079643;28;20486;-81
2024/02/08 10:11:27;;;;;;;9.07;6.43;;;5.80;99.90;;;;;;5079080;28;20442;-84
2024/02/08 10:13:56;;;;;;;10.13;7.00;;;5.80;99.90;;;;;;5079122;28;20459;-84
2024/02/08 10:19:47;;;;;;;14.67;7.60;;;5.80;99.90;;;;;;5072669;28;20444;-83
2024/02/08 10:22:17;;;;;;;12.67;5.87;;;5.80;99.90;;;;;;5078719;28;20463;-81
2024/02/08 10:27:29;;;;;;;12.20;6.87;;;5.80;99.90;;;;;;5078241;28;20486;-84
2024/02/08 10:29:58;;;;;;;9.00;6.73;;;5.90;99.90;;;;;;5079647;28;20483;-85
2024/02/08 10:32:27;;;;;;;10.00;6.63;;;6.00;99.90;;;;;;5079192;28;20432;-82
2024/02/08 10:35:13;;;;;;;10.40;5.97;;;6.10;99.90;;;;;;5079140;28;20456;-83
2024/02/08 10:37:53;;;;;;;8.17;5.67;;;6.00;99.90;;;;;;5079045;28;20451;-83
2024/02/08 10:40:29;;;;;;;9.87;6.73;;;6.10;99.90;;;;;;5079857;28;20467;-84
2024/02/08 10:42:59;;;;;;;10.20;6.37;;;6.20;99.90;;;;;;5067735;28;20449;-83
2024/02/08 10:45:32;;;;;;;10.90;6.17;;;6.10;99.90;;;;;;5057934;28;20449;-83
2024/02/08 10:48:00;;;;;;;9.00;5.90;;;6.20;99.90;;;;;;5067080;28;20566;-82
2024/02/08 10:50:28;;;;;;;10.13;6.20;;;6.20;99.90;;;;;;5067414;28;20475;-81
2024/02/08 10:53:00;;;;;;;9.00;6.07;;;6.30;99.90;;;;;;5068357;28;20452;-83
2024/02/08 10:55:36;;;;;;;10.07;7.23;;;6.20;99.90;;;;;;5073016;28;20448;-83
2024/02/08 10:58:21;;;;;;;10.77;7.40;;;6.30;99.90;;;;;;5069602;28;20446;-83
2024/02/08 11:01:06;;;;;;;9.10;6.53;;;6.40;99.90;;;;;;5069584;28;20540;-83
2024/02/08 11:03:42;;;;;;;7.30;5.80;;;6.50;99.90;;;;;;5057860;28;20457;-82
2024/02/08 11:06:26;;;;;;;6.40;4.90;;;6.50;99.90;;;;;;5057615;28;20460;-82
2024/02/08 11:09:09;;;;;;;9.10;6.63;;;6.50;99.90;;;;;;5066019;28;20483;-80
2024/02/08 11:11:39;;;;;;;8.23;6.23;;;6.50;99.90;;;;;;5062322;28;20944;-82
2024/02/08 11:14:09;;;;;;;8.90;6.10;;;6.60;99.90;;;;;;5062449;28;21043;-80
2024/02/08 11:16:41;;;;;;;8.90;6.37;;;6.60;99.90;;;;;;5063139;28;20451;-81
2024/02/08 11:19:16;;;;;;;10.70;7.00;;;6.60;99.90;;;;;;5061606;28;20473;-81
2024/02/08 11:21:44;;;;;;;8.43;5.93;;;6.60;99.90;;;;;;5063534;28;20512;-83
2024/02/08 11:24:14;;;;;;;9.43;6.10;;;6.50;99.90;;;;;;5062466;28;20483;-81
2024/02/08 11:26:54;;;;;;;9.63;5.73;;;6.50;99.90;;;;;;5062415;28;20483;-81
2024/02/08 11:29:24;;;;;;;7.93;6.00;;;6.50;99.90;;;;;;5062871;28;20881;-80
2024/02/08 11:31:51;;;;;;;11.03;6.50;;;6.50;99.90;;;;;;5061819;28;20464;-80
2024/02/08 11:34:24;;;;;;;7.20;5.40;;;6.50;99.90;;;;;;5064615;28;20491;-83
2024/02/08 11:36:53;;;;;;;9.00;6.50;;;6.50;99.90;;;;;;5062688;28;20516;-82
2024/02/08 11:39:27;;;;;;;8.63;6.20;;;6.50;99.90;;;;;;5062857;28;20487;-81
2024/02/08 11:41:57;;;;;;;9.73;6.20;;;6.30;99.90;;;;;;5063777;28;20458;-82
2024/02/08 11:44:28;;;;;;;13.47;7.57;;;6.30;99.90;;;;;;5065419;28;20447;-81
2024/02/08 11:46:59;;;;;;;9.60;6.53;;;6.20;99.90;;;;;;5061872;28;20495;-81
2024/02/08 11:49:39;;;;;;;12.53;8.07;;;6.20;99.90;;;;;;5061518;28;20486;-81
2024/02/08 11:52:10;;;;;;;10.87;6.53;;;6.30;99.90;;;;;;5062724;28;20490;-83
2024/02/08 11:54:38;;;;;;;9.53;6.20;;;6.30;99.90;;;;;;5057449;28;20452;-81
2024/02/08 11:57:05;;;;;;;8.90;7.50;;;6.40;99.90;;;;;;5064705;28;20515;-84
2024/02/08 11:59:37;;;;;;;11.13;6.20;;;6.40;99.90;;;;;;5062655;28;20480;-81
2024/02/08 12:02:07;;;;;;;11.57;6.53;;;6.40;99.90;;;;;;5060174;28;20455;-82
2024/02/08 12:04:36;;;;;;;11.40;6.30;;;6.30;99.90;;;;;;5060312;28;20456;-83
2024/02/08 12:07:07;;;;;;;11.53;8.20;;;6.40;99.90;;;;;;5051674;28;20605;-83
2024/02/08 12:09:34;;;;;;;11.40;7.03;;;6.30;99.90;;;;;;5061315;28;20475;-82
2024/02/08 12:12:03;;;;;;;9.97;7.10;;;6.40;99.90;;;;;;5060498;28;20453;-82
2024/02/08 12:14:30;;;;;;;8.17;6.30;;;6.20;99.90;;;;;;5073204;28;20438;-82
2024/02/08 12:16:58;;;;;;;11.87;7.77;;;6.10;99.90;;;;;;5074355;28;20472;-83
2024/02/08 12:19:27;;;;;;;8.90;6.43;;;6.00;99.90;;;;;;5074683;28;20507;-83
2024/02/08 12:21:57;;;;;;;11.43;7.47;;;5.90;99.90;;;;;;5074702;28;20459;-84
2024/02/08 12:24:23;;;;;;;9.50;7.10;;;6.00;99.90;;;;;;5075168;28;20448;-83
2024/02/08 12:26:54;;;;;;;11.00;7.60;;;6.10;99.90;;;;;;5066247;28;20517;-83
2024/02/08 12:29:24;;;;;;;13.53;6.87;;;6.10;99.90;;;;;;5074890;28;21010;-82
2024/02/08 12:31:54;;;;;;;10.80;7.20;;;6.20;99.90;;;;;;5065887;28;20527;-82
2024/02/08 12:34:31;;;;;;;8.90;6.53;;;6.30;99.90;;;;;;5074615;28;20444;-84
2024/02/08 12:37:04;;;;;;;9.90;7.20;;;6.30;99.90;;;;;;5074026;28;20519;-84
2024/02/08 12:39:35;;;;;;;12.37;7.00;;;6.40;99.90;;;;;;5074422;28;20516;-82
2024/02/08 12:42:05;;;;;;;12.23;7.00;;;6.40;99.90;;;;;;5068376;28;20451;-83
2024/02/08 12:44:34;;;;;;;13.43;6.63;;;6.40;99.90;;;;;;5062715;28;20814;-84
2024/02/08 12:47:05;;;;;;;9.63;6.67;;;6.40;99.90;;;;;;5061623;28;20578;-83
2024/02/08 12:49:34;;;;;;;18.30;8.13;;;6.40;99.90;;;;;;5062360;28;20479;-84
2024/02/08 12:52:03;;;;;;;15.07;7.43;;;6.50;99.90;;;;;;5062969;28;20452;-84
2024/02/08 12:54:32;;;;;;;11.77;7.20;;;6.50;99.90;;;;;;5063032;28;20479;-84
2024/02/08 12:57:10;;;;;;;11.93;7.50;;;6.50;99.90;;;;;;5062821;28;20440;-83
2024/02/08 12:59:38;;;;;;;10.40;6.93;;;6.40;99.90;;;;;;5063553;28;20491;-83
2024/02/08 13:02:09;;;;;;;12.70;8.50;;;6.50;99.90;;;;;;5063881;28;20880;-83
2024/02/08 13:04:43;;;;;;;11.40;6.73;;;6.60;99.90;;;;;;5063943;28;20476;-83
2024/02/08 13:07:14;;;;;;;16.90;9.83;;;6.60;99.90;;;;;;5064193;28;20487;-84
2024/02/08 13:09:43;;;;;;;13.77;8.63;;;6.40;99.90;;;;;;5063105;28;20555;-84
2024/02/08 13:12:18;;;;;;;12.97;8.77;;;6.30;99.90;;;;;;5064139;28;20470;-84
2024/02/08 13:15:02;;;;;;;12.80;8.53;;;6.40;99.90;;;;;;5063786;28;20463;-82
2024/02/08 13:17:33;;;;;;;16.43;9.10;;;6.50;99.90;;;;;;5064260;28;20462;-82
2024/02/08 13:20:11;;;;;;;13.27;8.80;;;6.40;99.90;;;;;;5064934;28;20553;-82
2024/02/08 13:22:38;;;;;;;12.60;9.47;;;6.60;99.90;;;;;;5066109;28;20967;-81
2024/02/08 13:25:11;;;;;;;12.27;8.30;;;6.60;99.90;;;;;;5065159;28;20463;-82
2024/02/08 13:27:39;;;;;;;12.07;9.70;;;6.70;99.90;;;;;;5064885;28;20487;-81
2024/02/08 13:30:14;;;;;;;13.07;8.43;;;6.70;99.90;;;;;;5064235;28;20471;-82
2024/02/08 13:32:42;;;;;;;15.23;10.60;;;6.60;99.90;;;;;;5066977;28;20475;-82
2024/02/08 13:35:18;;;;;;;11.23;8.90;;;6.50;99.90;;;;;;5065450;28;20523;-83
2024/02/08 13:37:46;;;;;;;12.60;9.53;;;6.50;99.90;;;;;;5064644;28;20466;-83
2024/02/08 13:40:13;;;;;;;9.83;7.80;;;6.40;99.90;;;;;;5062885;28;20506;-83
2024/02/08 13:42:40;;;;;;;13.53;10.80;;;6.40;99.90;;;;;;5065169;28;20482;-83
2024/02/08 13:45:07;;;;;;;16.93;13.00;;;6.20;99.90;;;;;;5065784;28;20541;-83
2024/02/08 13:47:36;;;;;;;13.70;11.10;;;6.20;99.90;;;;;;5063937;28;20559;-84
2024/02/08 13:50:07;;;;;;;13.47;11.10;;;6.20;99.90;;;;;;5062506;28;20490;-83
2024/02/08 13:52:35;;;;;;;13.50;10.93;;;6.20;99.90;;;;;;5066926;28;20459;-83
2024/02/08 13:55:02;;;;;;;17.90;13.17;;;6.10;99.90;;;;;;5063859;28;20494;-82
2024/02/08 13:57:30;;;;;;;13.53;11.80;;;6.00;99.90;;;;;;5064479;28;20507;-83
2024/02/08 14:00:03;;;;;;;13.97;10.67;;;5.90;99.90;;;;;;5063521;28;20539;-84
2024/02/08 14:02:31;;;;;;;15.93;11.57;;;5.90;99.90;;;;;;5063541;28;20459;-83
2024/02/08 14:05:04;;;;;;;15.13;12.53;;;6.00;99.90;;;;;;5062653;28;20549;-82
2024/02/08 14:07:31;;;;;;;16.97;12.33;;;6.00;99.90;;;;;;5061726;28;20483;-82
2024/02/08 14:10:00;;;;;;;15.73;11.13;;;6.00;99.90;;;;;;5062495;28;20928;-82
2024/02/08 14:12:26;;;;;;;16.30;10.50;;;6.00;99.90;;;;;;5062913;28;20504;-83
2024/02/08 14:14:54;;;;;;;11.67;10.27;;;5.90;99.90;;;;;;5061089;28;20548;-83
2024/02/08 14:17:26;;;;;;;10.57;8.43;;;5.90;99.90;;;;;;5061311;28;20535;-81
2024/02/08 14:19:55;;;;;;;11.27;8.80;;;6.00;99.90;;;;;;5062824;28;20479;-83
2024/02/08 14:22:23;;;;;;;11.50;10.30;;;6.00;99.90;;;;;;5062580;28;20501;-82
2024/02/08 14:24:53;;;;;;;14.10;11.17;;;6.10;99.90;;;;;;5064102;28;20467;-80
2024/02/08 14:27:24;;;;;;;11.07;8.93;;;5.90;99.90;;;;;;5065499;28;20474;-81
2024/02/08 14:29:51;;;;;;;12.70;9.30;;;6.10;99.90;;;;;;5064849;28;20494;-80
2024/02/08 14:32:21;;;;;;;12.03;9.23;;;6.00;99.90;;;;;;5063317;28;21002;-81
2024/02/08 14:34:48;;;;;;;13.10;8.80;;;5.90;99.90;;;;;;5061705;28;20508;-80
2024/02/08 14:37:15;;;;;;;13.07;9.07;;;5.80;99.90;;;;;;5064801;28;21074;-81
2024/02/08 14:39:42;;;;;;;13.47;8.00;;;5.70;99.90;;;;;;5062979;28;20491;-82
2024/02/08 14:42:11;;;;;;;10.70;7.83;;;5.60;99.90;;;;;;5066626;28;20452;-82
2024/02/08 14:44:44;;;;;;;10.80;7.53;;;5.60;99.90;;;;;;5063780;28;20455;-82
2024/02/08 14:47:21;;;;;;;10.90;7.60;;;5.60;99.90;;;;;;5063392;28;20451;-81
2024/02/08 14:49:58;;;;;;;11.23;7.50;;;5.60;99.90;;;;;;5067238;28;20468;-80